Time;durP1;ratioP1;P1;durP2;ratioP2;P2;SDS_P1;SDS_P2;PMS_P1;PMS_P2;Temp;Humidity;BMP_temperature;BMP_pressure;BME280_temperature;BME280_humidity;BME280_pressure;Samples;Min_cycle;Max_cycle;Signal;HPM_P1;HPM_P2
2024/01/15 00:02:06;;;;;;;24.92;11.48;;;;;;;0.27;100.00;95585.88;5000269;28;20057;-76
2024/01/15 00:04:39;;;;;;;28.85;12.18;;;;;;;0.29;100.00;95580.16;4987373;28;20046;-73
2024/01/15 00:07:05;;;;;;;25.90;11.73;;;;;;;0.38;100.00;95578.97;4983029;28;20097;-72
2024/01/15 00:09:30;;;;;;;26.27;12.50;;;;;;;0.32;100.00;95569.50;4976298;28;20050;-73
2024/01/15 00:11:56;;;;;;;29.30;11.15;;;;;;;0.30;100.00;95570.97;4983230;28;20042;-74
2024/01/15 00:14:22;;;;;;;31.90;13.10;;;;;;;0.17;100.00;95570.09;4979337;28;20572;-73
2024/01/15 00:16:50;;;;;;;34.72;12.60;;;;;;;0.12;100.00;95575.69;4965597;28;20497;-74
2024/01/15 00:19:15;;;;;;;27.02;12.35;;;;;;;0.31;100.00;95583.31;4978305;28;20050;-73
2024/01/15 00:21:41;;;;;;;26.25;11.57;;;;;;;0.49;100.00;95581.28;4982440;28;20034;-73
2024/01/15 00:24:06;;;;;;;28.67;12.43;;;;;;;0.49;100.00;95575.91;4980188;28;20509;-73
2024/01/15 00:26:32;;;;;;;27.80;12.68;;;;;;;0.37;100.00;95574.69;4987841;28;20042;-73
2024/01/15 00:28:57;;;;;;;32.88;12.80;;;;;;;0.27;100.00;95575.13;4982025;28;20051;-73
2024/01/15 00:31:22;;;;;;;27.80;11.68;;;;;;;0.31;100.00;95577.94;4977757;28;20054;-75
2024/01/15 00:33:48;;;;;;;27.45;11.80;;;;;;;0.38;100.00;95576.28;4982789;28;20054;-74
2024/01/15 00:36:14;;;;;;;29.83;11.68;;;;;;;0.43;100.00;95572.59;4979015;28;20386;-74
2024/01/15 00:38:39;;;;;;;25.83;11.23;;;;;;;0.52;100.00;95569.84;4981829;28;20039;-74
2024/01/15 00:41:05;;;;;;;24.08;11.25;;;;;;;0.47;100.00;95564.66;4977338;28;20039;-73
2024/01/15 00:43:30;;;;;;;23.58;11.30;;;;;;;0.57;100.00;95570.44;4980178;28;20042;-73
2024/01/15 00:45:56;;;;;;;21.20;9.77;;;;;;;0.40;100.00;95567.88;4983069;28;20043;-75
2024/01/15 00:48:21;;;;;;;23.60;11.13;;;;;;;0.34;100.00;95561.91;4978493;28;20179;-75
2024/01/15 00:50:46;;;;;;;20.80;9.60;;;;;;;0.42;100.00;95565.66;4979521;28;20164;-74
2024/01/15 00:53:12;;;;;;;20.15;9.45;;;;;;;0.40;100.00;95575.97;4977728;28;20042;-75
2024/01/15 00:55:37;;;;;;;19.70;8.52;;;;;;;0.51;100.00;95573.66;4982937;28;20133;-75
2024/01/15 00:58:03;;;;;;;18.20;8.93;;;;;;;0.54;100.00;95575.69;4977630;28;20593;-70
2024/01/15 01:00:29;;;;;;;18.15;8.23;;;;;;;0.42;100.00;95573.72;4982071;28;20045;-73
2024/01/15 01:02:54;;;;;;;20.17;8.82;;;;;;;0.40;100.00;95572.47;4982202;28;20050;-75
2024/01/15 01:05:20;;;;;;;19.40;8.80;;;;;;;0.34;100.00;95580.75;4978213;28;20069;-75
2024/01/15 01:07:45;;;;;;;16.95;8.93;;;;;;;0.29;100.00;95575.56;4988277;28;20038;-73
2024/01/15 01:10:10;;;;;;;21.33;9.60;;;;;;;0.23;100.00;95574.16;4979027;28;20044;-74
2024/01/15 01:12:36;;;;;;;20.23;8.65;;;;;;;0.19;100.00;95581.34;4979963;28;20051;-74
2024/01/15 01:15:02;;;;;;;17.83;8.75;;;;;;;0.29;100.00;95580.97;4980272;28;20149;-71
2024/01/15 01:17:28;;;;;;;20.02;8.15;;;;;;;0.25;100.00;95577.31;4978567;28;20685;-72
2024/01/15 01:19:53;;;;;;;16.33;8.20;;;;;;;0.32;100.00;95579.50;4981812;28;20042;-75
2024/01/15 01:22:18;;;;;;;18.15;8.20;;;;;;;0.32;100.00;95590.28;4977367;28;20069;-73
2024/01/15 01:24:44;;;;;;;18.48;8.45;;;;;;;0.30;100.00;95590.59;4970346;28;20504;-74
2024/01/15 01:27:09;;;;;;;17.10;8.25;;;;;;;0.33;100.00;95592.66;4974016;28;20042;-74
2024/01/15 01:29:35;;;;;;;19.15;9.18;;;;;;;0.37;100.00;95584.69;4979594;28;20108;-75
2024/01/15 01:32:00;;;;;;;17.88;8.38;;;;;;;0.37;100.00;95592.78;4982197;28;20073;-74
2024/01/15 01:34:26;;;;;;;19.35;8.40;;;;;;;0.36;100.00;95593.88;4981444;28;20426;-72
2024/01/15 01:36:51;;;;;;;15.45;7.07;;;;;;;0.43;100.00;95604.16;4989175;28;20061;-73
2024/01/15 01:39:17;;;;;;;16.10;8.23;;;;;;;0.41;100.00;95595.59;4982256;28;20046;-73
2024/01/15 01:41:42;;;;;;;16.33;7.95;;;;;;;0.50;100.00;95605.19;4975222;28;20120;-74
2024/01/15 01:44:08;;;;;;;16.10;8.98;;;;;;;0.60;100.00;95605.94;4960690;28;20096;-75
2024/01/15 01:46:39;;;;;;;17.30;8.13;;;;;;;0.49;100.00;95610.94;4980591;28;20077;-73
2024/01/15 01:49:06;;;;;;;17.08;8.35;;;;;;;0.60;100.00;95612.09;4975078;28;20398;-70
2024/01/15 01:51:33;;;;;;;18.20;9.63;;;;;;;0.53;100.00;95617.22;4981289;28;20092;-73
2024/01/15 01:53:59;;;;;;;17.02;7.82;;;;;;;0.53;100.00;95611.84;4983291;28;20039;-74
2024/01/15 01:56:25;;;;;;;15.63;7.28;;;;;;;0.47;100.00;95610.44;4978061;28;20111;-74
2024/01/15 01:58:50;;;;;;;16.98;7.75;;;;;;;0.47;100.00;95610.44;4979077;28;20031;-71
2024/01/15 02:01:16;;;;;;;15.73;7.43;;;;;;;0.45;100.00;95620.75;4982489;28;20098;-74
2024/01/15 02:03:43;;;;;;;16.35;8.45;;;;;;;0.59;100.00;95615.91;4982178;28;20038;-72
2024/01/15 02:06:08;;;;;;;19.20;7.88;;;;;;;0.51;100.00;95601.41;4975338;28;20053;-72
2024/01/15 02:08:34;;;;;;;13.82;7.43;;;;;;;0.47;100.00;95592.41;4981051;28;20042;-75
2024/01/15 02:11:00;;;;;;;16.55;7.32;;;;;;;0.47;100.00;95589.69;4980731;28;20046;-75
2024/01/15 02:13:25;;;;;;;12.93;6.65;;;;;;;0.35;100.00;95595.78;4977453;28;20056;-75
2024/01/15 02:15:50;;;;;;;15.20;7.30;;;;;;;0.15;100.00;95602.75;4979869;28;20124;-75
2024/01/15 02:18:16;;;;;;;16.02;7.68;;;;;;;0.06;100.00;95614.69;4980331;28;20044;-75
2024/01/15 02:20:41;;;;;;;14.65;8.45;;;;;;;-0.11;100.00;95608.28;4981321;28;20725;-75
2024/01/15 02:23:11;;;;;;;16.05;7.20;;;;;;;-0.21;100.00;95608.63;4976028;28;20042;-74
2024/01/15 02:25:44;;;;;;;19.13;7.93;;;;;;;-0.35;100.00;95616.91;4979707;28;20085;-75
2024/01/15 02:28:15;;;;;;;20.55;8.20;;;;;;;-0.45;100.00;95612.69;4976269;28;20057;-73
2024/01/15 02:30:42;;;;;;;18.98;8.57;;;;;;;-0.60;100.00;95632.81;4983169;28;20035;-72
2024/01/15 02:33:08;;;;;;;23.90;10.27;;;;;;;-0.75;100.00;95627.19;4976078;28;20441;-72
2024/01/15 02:35:36;;;;;;;22.25;8.90;;;;;;;-0.91;100.00;95638.41;4980930;28;20073;-73
2024/01/15 02:38:02;;;;;;;18.30;8.88;;;;;;;-0.89;100.00;95635.41;4983873;28;20054;-74
2024/01/15 02:40:27;;;;;;;21.98;10.25;;;;;;;-0.96;100.00;95633.19;4979265;28;20034;-73
2024/01/15 02:42:53;;;;;;;24.48;10.75;;;;;;;-0.97;100.00;95635.09;4979018;28;20038;-76
2024/01/15 02:45:20;;;;;;;24.00;10.23;;;;;;;-1.02;100.00;95631.81;4978311;28;20510;-75
2024/01/15 02:47:45;;;;;;;23.88;10.70;;;;;;;-1.09;100.00;95632.28;4977673;28;20046;-76
2024/01/15 02:50:10;;;;;;;22.00;10.05;;;;;;;-1.21;100.00;95632.13;4953195;28;20038;-75
2024/01/15 02:52:36;;;;;;;23.20;10.48;;;;;;;-1.27;100.00;95625.34;4978642;28;20441;-74
2024/01/15 02:55:01;;;;;;;20.77;9.98;;;;;;;-1.43;100.00;95627.69;4977708;28;20506;-70
2024/01/15 02:57:27;;;;;;;25.58;11.75;;;;;;;-1.52;100.00;95643.03;4978450;28;20043;-76
2024/01/15 02:59:52;;;;;;;22.13;11.13;;;;;;;-1.51;100.00;95640.03;4979659;28;20038;-75
2024/01/15 03:02:17;;;;;;;19.48;10.20;;;;;;;-1.53;100.00;95634.19;4973108;28;20708;-75
2024/01/15 03:04:44;;;;;;;24.63;10.70;;;;;;;-1.59;100.00;95628.16;4981925;28;20146;-74
2024/01/15 03:07:09;;;;;;;24.30;11.43;;;;;;;-1.56;100.00;95619.47;4975395;28;20069;-75
2024/01/15 03:09:34;;;;;;;23.40;10.63;;;;;;;-1.63;100.00;95623.75;4980645;28;20430;-74
2024/01/15 03:12:00;;;;;;;26.92;12.20;;;;;;;-1.67;100.00;95614.75;4979477;28;20108;-75
2024/01/15 03:14:26;;;;;;;26.67;11.32;;;;;;;-1.63;100.00;95607.63;4967839;28;20141;-75
2024/01/15 03:16:52;;;;;;;25.52;10.48;;;;;;;-1.68;100.00;95613.94;4980169;28;20034;-75
2024/01/15 03:19:17;;;;;;;29.33;12.88;;;;;;;-1.66;100.00;95605.56;4979827;28;20103;-73
2024/01/15 03:21:42;;;;;;;24.98;11.27;;;;;;;-1.73;100.00;95614.88;4987743;28;20049;-73
2024/01/15 03:24:08;;;;;;;25.67;12.15;;;;;;;-1.81;100.00;95614.88;4981817;28;20037;-74
2024/01/15 03:26:33;;;;;;;24.05;10.95;;;;;;;-1.72;100.00;95615.66;4988272;28;20049;-74
2024/01/15 03:28:59;;;;;;;25.85;11.10;;;;;;;-1.78;100.00;95606.97;4967787;28;20106;-73
2024/01/15 03:31:24;;;;;;;24.30;11.20;;;;;;;-1.92;100.00;95601.75;4979905;28;20146;-74
2024/01/15 03:33:49;;;;;;;25.35;10.15;;;;;;;-2.00;100.00;95609.75;4967834;28;20042;-72
2024/01/15 03:36:15;;;;;;;24.33;10.85;;;;;;;-2.04;100.00;95606.13;4961528;28;20042;-73
2024/01/15 03:38:41;;;;;;;25.40;11.52;;;;;;;-2.12;100.00;95610.38;4985289;28;20047;-74
2024/01/15 03:41:07;;;;;;;26.77;10.68;;;;;;;-2.17;100.00;95611.31;4980629;28;20556;-74
2024/01/15 03:43:33;;;;;;;26.98;10.38;;;;;;;-2.03;100.00;95613.88;4984044;28;20038;-74
2024/01/15 03:45:58;;;;;;;27.17;10.90;;;;;;;-1.71;100.00;95617.25;4985122;28;20076;-74
2024/01/15 03:48:24;;;;;;;25.50;11.85;;;;;;;-1.60;100.00;95620.44;4978506;28;20046;-74
2024/01/15 03:50:49;;;;;;;24.58;11.20;;;;;;;-1.61;100.00;95630.38;4982176;28;20453;-72
2024/01/15 03:53:14;;;;;;;28.77;11.65;;;;;;;-1.80;100.00;95619.94;4977989;28;20134;-73
2024/01/15 03:55:40;;;;;;;25.80;10.45;;;;;;;-1.80;100.00;95621.81;4983570;28;20042;-74
2024/01/15 03:58:05;;;;;;;23.80;10.57;;;;;;;-1.84;100.00;95618.94;4977055;28;20497;-75
2024/01/15 04:00:31;;;;;;;25.50;11.45;;;;;;;-1.86;100.00;95625.75;4981753;28;20054;-75
2024/01/15 04:02:56;;;;;;;26.13;11.93;;;;;;;-1.88;100.00;95620.69;4982281;28;20565;-74
2024/01/15 04:05:21;;;;;;;30.58;11.32;;;;;;;-1.88;100.00;95617.22;4977831;28;20665;-77
2024/01/15 04:07:47;;;;;;;24.58;10.48;;;;;;;-1.83;100.00;95617.09;4983809;28;20034;-76
2024/01/15 04:10:13;;;;;;;20.75;10.68;;;;;;;-1.76;100.00;95623.56;4964655;28;20066;-76
2024/01/15 04:12:38;;;;;;;22.27;10.32;;;;;;;-1.76;100.00;95620.09;4982919;28;20042;-75
2024/01/15 04:15:04;;;;;;;23.85;10.98;;;;;;;-1.70;100.00;95623.41;4982941;28;20050;-69
2024/01/15 04:17:30;;;;;;;24.00;11.07;;;;;;;-1.65;100.00;95617.91;4986158;28;20085;-74
2024/01/15 04:19:55;;;;;;;22.20;10.77;;;;;;;-1.59;100.00;95611.25;4986308;28;20046;-75
2024/01/15 04:22:21;;;;;;;26.70;10.65;;;;;;;-1.60;100.00;95605.09;4980946;28;20520;-74
2024/01/15 04:24:46;;;;;;;23.88;10.35;;;;;;;-1.58;100.00;95607.47;4982412;28;20046;-72
2024/01/15 04:27:12;;;;;;;22.52;10.65;;;;;;;-1.58;100.00;95599.41;4962200;28;20077;-75
2024/01/15 04:29:39;;;;;;;25.65;10.77;;;;;;;-1.64;100.00;95604.16;4967666;28;20046;-75
2024/01/15 04:32:04;;;;;;;23.40;10.93;;;;;;;-1.62;100.00;95601.13;4981016;28;20137;-70
2024/01/15 04:34:30;;;;;;;25.25;10.45;;;;;;;-1.58;100.00;95604.78;4981218;28;20137;-72
2024/01/15 04:36:55;;;;;;;22.75;10.20;;;;;;;-1.46;100.00;95604.16;4980880;28;20035;-74
2024/01/15 04:39:20;;;;;;;24.38;10.48;;;;;;;-1.33;100.00;95602.41;4975335;28;21869;-74
2024/01/15 04:41:46;;;;;;;21.60;10.52;;;;;;;-1.11;100.00;95606.84;4979499;28;20062;-75
2024/01/15 04:44:11;;;;;;;24.45;10.48;;;;;;;-0.93;100.00;95603.00;4978732;28;20038;-74
2024/01/15 04:46:37;;;;;;;24.83;9.93;;;;;;;-0.90;100.00;95607.75;4983985;28;20053;-74
2024/01/15 04:49:02;;;;;;;22.10;10.13;;;;;;;-1.04;100.00;95602.56;4992107;28;20042;-71
2024/01/15 04:51:27;;;;;;;22.73;10.02;;;;;;;-1.01;100.00;95596.53;4979448;28;20104;-74
2024/01/15 04:53:53;;;;;;;22.63;10.80;;;;;;;-0.99;100.00;95599.69;4981407;28;20042;-72
2024/01/15 04:56:19;;;;;;;23.23;10.20;;;;;;;-0.96;100.00;95599.03;4978514;28;20070;-73
2024/01/15 04:58:45;;;;;;;21.23;9.85;;;;;;;-1.01;100.00;95603.81;4983715;28;20113;-73
2024/01/15 05:01:10;;;;;;;26.33;10.25;;;;;;;-1.13;100.00;95603.66;4980890;28;20521;-73
2024/01/15 05:03:36;;;;;;;25.40;10.52;;;;;;;-1.23;100.00;95602.09;4983531;28;20092;-72
2024/01/15 05:06:01;;;;;;;21.83;10.38;;;;;;;-1.28;100.00;95597.66;4980966;28;20049;-70
2024/01/15 05:08:27;;;;;;;26.65;11.35;;;;;;;-1.30;100.00;95591.03;4978175;28;20046;-75
2024/01/15 05:10:52;;;;;;;19.98;9.60;;;;;;;-1.28;100.00;95592.28;4982506;28;20042;-74
2024/01/15 05:13:18;;;;;;;23.50;11.60;;;;;;;-1.22;100.00;95601.00;4977448;28;20046;-74
2024/01/15 05:15:43;;;;;;;24.65;11.13;;;;;;;-1.17;100.00;95603.50;4981425;28;20038;-75
2024/01/15 05:18:08;;;;;;;19.85;10.38;;;;;;;-1.14;100.00;95602.09;4977232;28;20038;-74
2024/01/15 05:20:34;;;;;;;23.00;10.10;;;;;;;-1.08;100.00;95607.00;4984873;28;20073;-73
2024/01/15 05:22:59;;;;;;;22.88;10.15;;;;;;;-1.05;100.00;95608.25;4963551;28;20152;-73
2024/01/15 05:25:25;;;;;;;27.42;10.77;;;;;;;-1.07;100.00;95611.25;4976422;28;20648;-72
2024/01/15 05:27:50;;;;;;;21.75;10.15;;;;;;;-1.06;100.00;95599.41;4974093;28;20137;-74
2024/01/15 05:30:16;;;;;;;27.25;10.38;;;;;;;-1.23;100.00;95602.09;4975423;28;20062;-74
2024/01/15 05:32:41;;;;;;;22.77;10.30;;;;;;;-1.38;100.00;95606.06;4982998;28;20046;-73
2024/01/15 05:35:07;;;;;;;24.67;10.43;;;;;;;-1.42;100.00;95592.47;4979204;28;20497;-74
2024/01/15 05:37:32;;;;;;;25.75;11.73;;;;;;;-1.45;100.00;95593.09;4987303;28;20054;-73
2024/01/15 05:39:58;;;;;;;24.50;10.68;;;;;;;-1.35;100.00;95592.78;4984027;28;20065;-73
2024/01/15 05:42:23;;;;;;;24.13;10.70;;;;;;;-1.30;100.00;95581.06;4978448;28;20136;-72
2024/01/15 05:44:49;;;;;;;25.13;10.93;;;;;;;-1.32;100.00;95579.81;4980487;28;20039;-71
2024/01/15 05:47:14;;;;;;;22.63;10.80;;;;;;;-1.39;100.00;95586.47;4972677;28;20042;-71
2024/01/15 05:49:40;;;;;;;24.05;10.93;;;;;;;-1.24;100.00;95584.38;4972989;28;20129;-71
2024/01/15 05:52:06;;;;;;;21.48;10.05;;;;;;;-1.05;100.00;95578.69;4974737;28;20049;-71
2024/01/15 05:54:31;;;;;;;22.30;9.45;;;;;;;-0.98;100.00;95573.59;4980533;28;20200;-71
2024/01/15 05:56:57;;;;;;;21.55;9.70;;;;;;;-0.93;100.00;95567.28;4979523;28;20482;-71
2024/01/15 05:59:22;;;;;;;29.48;10.57;;;;;;;-1.35;100.00;95563.25;4974864;28;20353;-70
2024/01/15 06:01:48;;;;;;;26.25;11.43;;;;;;;-1.40;100.00;95563.41;4981867;28;20076;-72
2024/01/15 06:04:13;;;;;;;26.83;10.90;;;;;;;-1.16;100.00;95572.84;4977213;28;20553;-72
2024/01/15 06:06:38;;;;;;;24.17;10.25;;;;;;;-0.89;100.00;95566.31;4978498;28;20409;-73
2024/01/15 06:09:07;;;;;;;20.98;9.60;;;;;;;-0.86;100.00;95568.38;4976786;28;20556;-71
2024/01/15 06:11:32;;;;;;;27.55;9.90;;;;;;;-0.72;100.00;95572.75;4979616;28;20094;-71
2024/01/15 06:13:58;;;;;;;21.05;9.52;;;;;;;-0.84;100.00;95568.81;4996418;28;20498;-72
2024/01/15 06:16:24;;;;;;;23.35;9.38;;;;;;;-0.81;100.00;95565.50;4975385;28;20132;-73
2024/01/15 06:18:50;;;;;;;22.08;8.70;;;;;;;-0.61;100.00;95580.16;4978278;28;20069;-71
2024/01/15 06:21:16;;;;;;;22.05;7.47;;;;;;;-0.63;100.00;95571.63;4975587;28;20486;-72
2024/01/15 06:23:41;;;;;;;22.40;9.15;;;;;;;-0.70;100.00;95565.94;4978500;28;20034;-71
2024/01/15 06:26:07;;;;;;;24.50;10.18;;;;;;;-0.69;100.00;95554.06;4973635;28;20752;-72
2024/01/15 06:28:32;;;;;;;23.13;9.10;;;;;;;-0.73;100.00;95561.22;4994362;28;20077;-74
2024/01/15 06:30:58;;;;;;;21.63;8.80;;;;;;;-0.87;100.00;95566.78;4979013;28;20062;-74
2024/01/15 06:33:23;;;;;;;21.23;9.52;;;;;;;-0.89;100.00;95576.28;4975862;28;20525;-73
2024/01/15 06:35:49;;;;;;;24.10;8.88;;;;;;;-0.67;100.00;95575.25;4962816;28;20042;-75
2024/01/15 06:38:15;;;;;;;20.05;8.45;;;;;;;-0.67;100.00;95580.63;4974478;28;20089;-75
2024/01/15 06:40:45;;;;;;;21.65;8.63;;;;;;;-0.76;100.00;95575.28;4980210;28;20046;-76
2024/01/15 06:43:14;;;;;;;22.55;8.95;;;;;;;-0.73;100.00;95566.59;4974843;28;20035;-76
2024/01/15 06:45:40;;;;;;;;;;;;;;;-0.67;100.00;95567.19;4979061;28;20078;-69
2024/01/15 06:48:07;;;;;;;20.48;7.85;;;;;;;-0.69;100.00;95559.44;4975003;28;19953;-69
2024/01/15 06:50:32;;;;;;;21.17;8.10;;;;;;;-0.73;100.00;95557.72;4978885;28;20035;-69
2024/01/15 06:52:58;;;;;;;22.13;8.50;;;;;;;-0.77;100.00;95554.91;4981179;28;20048;-69
2024/01/15 06:55:23;;;;;;;18.00;8.45;;;;;;;-0.75;100.00;95559.97;4978419;28;20236;-69
2024/01/15 06:57:48;;;;;;;19.58;8.23;;;;;;;-0.59;100.00;95540.28;4987761;28;20034;-69
2024/01/15 07:01:05;;;;;;;21.05;8.85;;;;;;;-0.46;100.00;95546.53;4981960;28;20038;-68
2024/01/15 07:03:31;;;;;;;17.15;7.07;;;;;;;-0.62;100.00;95558.94;4983477;28;20042;-68
2024/01/15 07:05:56;;;;;;;19.10;7.32;;;;;;;-0.65;100.00;95557.72;4984092;28;20484;-68
2024/01/15 07:08:22;;;;;;;17.38;7.13;;;;;;;-0.61;100.00;95557.84;4977909;28;21181;-69
2024/01/15 07:10:47;;;;;;;19.75;7.70;;;;;;;-0.67;100.00;95559.91;4983885;28;20050;-69
2024/01/15 07:13:12;;;;;;;22.05;8.32;;;;;;;-0.74;100.00;95556.13;4978530;28;20030;-69
2024/01/15 07:15:38;;;;;;;18.58;7.93;;;;;;;-0.78;100.00;95554.09;4981690;28;20047;-69
2024/01/15 07:18:04;;;;;;;17.95;7.53;;;;;;;-0.65;100.00;95556.91;4982045;28;20077;-69
2024/01/15 07:20:29;;;;;;;20.52;8.00;;;;;;;-0.70;100.00;95570.50;4981433;28;20482;-70
2024/01/15 07:22:54;;;;;;;18.85;7.72;;;;;;;-0.63;100.00;95562.75;4982157;28;20042;-69
2024/01/15 07:25:20;;;;;;;18.80;7.22;;;;;;;-0.71;100.00;95560.88;4976542;28;20041;-69
2024/01/15 07:27:46;;;;;;;17.60;6.85;;;;;;;-0.74;100.00;95564.22;4981745;28;20061;-69
2024/01/15 07:30:12;;;;;;;14.35;6.50;;;;;;;-0.69;100.00;95564.03;4977717;28;20038;-68
2024/01/15 07:32:37;;;;;;;15.50;6.93;;;;;;;-0.54;100.00;95574.28;4982691;28;20038;-69
2024/01/15 07:35:03;;;;;;;15.07;7.32;;;;;;;-0.65;100.00;95559.59;4979810;28;20042;-68
2024/01/15 07:37:29;;;;;;;16.58;7.43;;;;;;;-0.66;100.00;95572.25;4981924;28;20038;-69
2024/01/15 07:39:54;;;;;;;19.65;7.55;;;;;;;-0.69;100.00;95570.19;4975051;28;20864;-69
2024/01/15 07:42:20;;;;;;;17.48;7.53;;;;;;;-0.73;100.00;95584.63;4976837;28;20039;-69
2024/01/15 07:44:45;;;;;;;18.17;7.70;;;;;;;-0.74;100.00;95575.75;4981201;28;20053;-72
2024/01/15 07:47:10;;;;;;;16.63;7.30;;;;;;;-0.73;100.00;95571.97;4979804;28;20497;-71
2024/01/15 07:49:36;;;;;;;17.25;6.95;;;;;;;-0.54;100.00;95574.28;5001740;28;20045;-71
2024/01/15 07:52:02;;;;;;;19.20;7.85;;;;;;;-0.59;100.00;95575.22;4981736;28;20057;-71
2024/01/15 07:54:28;;;;;;;19.88;7.03;;;;;;;-0.66;100.00;95574.94;4979291;28;20532;-71
2024/01/15 07:56:57;;;;;;;20.23;8.07;;;;;;;-0.67;100.00;95573.34;4981865;28;20046;-70
2024/01/15 07:59:23;;;;;;;22.65;8.65;;;;;;;-0.56;100.00;95581.84;4976326;28;20503;-71
2024/01/15 08:01:49;;;;;;;25.13;10.30;;;;;;;-0.64;100.00;95588.06;4981555;28;20397;-70
2024/01/15 08:04:15;;;;;;;24.77;9.40;;;;;;;-0.65;100.00;95587.28;4978720;28;20062;-72
2024/01/15 08:06:40;;;;;;;16.90;7.60;;;;;;;-0.67;100.00;95575.25;4982758;28;20508;-72
2024/01/15 08:09:06;;;;;;;22.35;9.80;;;;;;;-0.64;100.00;95591.53;4978523;28;20433;-72
2024/01/15 08:11:31;;;;;;;22.15;8.95;;;;;;;-0.67;100.00;95583.31;4980834;28;20153;-73
2024/01/15 08:13:57;;;;;;;20.88;9.88;;;;;;;-0.66;100.00;95576.84;4981911;28;20034;-73
2024/01/15 08:16:24;;;;;;;19.75;8.55;;;;;;;-0.57;100.00;95580.28;4983231;28;20050;-74
2024/01/15 08:18:49;;;;;;;21.52;8.40;;;;;;;-0.64;100.00;95585.38;4986928;28;20501;-74
2024/01/15 08:21:15;;;;;;;21.88;9.15;;;;;;;-0.58;100.00;95586.78;4968023;28;20108;-74
2024/01/15 08:23:41;;;;;;;23.23;8.80;;;;;;;-0.58;100.00;95586.78;4966750;28;20150;-74
2024/01/15 08:26:07;;;;;;;19.52;8.60;;;;;;;-0.56;100.00;95578.38;4975935;28;20122;-71
2024/01/15 08:28:32;;;;;;;22.65;9.73;;;;;;;-0.54;100.00;95582.34;4980953;28;20133;-72
2024/01/15 08:30:58;;;;;;;20.40;9.07;;;;;;;-0.60;100.00;95584.41;4981685;28;20099;-71
2024/01/15 08:33:23;;;;;;;22.60;9.35;;;;;;;-0.56;100.00;95581.06;4978547;28;20085;-71
2024/01/15 08:35:48;;;;;;;20.08;8.88;;;;;;;-0.58;100.00;95589.47;4980543;28;20138;-71
2024/01/15 08:38:14;;;;;;;19.80;8.30;;;;;;;-0.60;100.00;95581.72;4976078;28;20049;-72
2024/01/15 08:40:39;;;;;;;23.60;8.55;;;;;;;-0.66;100.00;95577.63;4979471;28;20468;-71
2024/01/15 08:43:06;;;;;;;22.25;8.85;;;;;;;-0.55;100.00;95590.75;4975406;28;20074;-71
2024/01/15 08:45:32;;;;;;;23.02;9.20;;;;;;;-0.60;100.00;95589.78;4982341;28;20046;-70
2024/01/15 08:47:57;;;;;;;20.77;9.75;;;;;;;-0.54;100.00;95584.22;4980904;28;20064;-70
2024/01/15 08:50:23;;;;;;;23.75;10.75;;;;;;;-0.55;100.00;95579.97;4978453;28;20096;-69
2024/01/15 08:52:48;;;;;;;21.33;8.95;;;;;;;-0.61;100.00;95590.13;4980581;28;20043;-69
2024/01/15 08:55:14;;;;;;;20.90;8.95;;;;;;;-0.62;100.00;95596.59;4979377;28;20077;-70
2024/01/15 08:57:39;;;;;;;26.60;10.27;;;;;;;-0.62;100.00;95592.00;4981541;28;20084;-70
2024/01/15 09:00:08;;;;;;;21.77;9.93;;;;;;;-0.40;100.00;95596.38;4977121;28;20406;-70
2024/01/15 09:02:34;;;;;;;23.15;9.98;;;;;;;-0.29;100.00;95586.03;4979011;28;20046;-69
2024/01/15 09:05:00;;;;;;;26.80;9.95;;;;;;;-0.29;100.00;95596.00;4983063;28;20038;-70
2024/01/15 09:07:26;;;;;;;21.33;9.90;;;;;;;-0.46;100.00;95594.19;4992145;28;20064;-69
2024/01/15 09:09:52;;;;;;;23.70;10.00;;;;;;;-0.36;100.00;95596.53;4981786;28;20529;-68
2024/01/15 09:12:20;;;;;;;21.95;8.63;;;;;;;-0.30;100.00;95599.81;4977789;28;20148;-69
2024/01/15 09:14:46;;;;;;;26.77;11.15;;;;;;;-0.29;100.00;95599.50;4995550;28;20074;-69
2024/01/15 09:17:12;;;;;;;21.70;9.50;;;;;;;-0.25;100.00;95600.41;4978188;28;20046;-70
2024/01/15 09:19:39;;;;;;;24.75;10.00;;;;;;;-0.38;100.00;95590.66;4980654;28;20452;-69
2024/01/15 09:22:05;;;;;;;19.95;9.15;;;;;;;-0.37;100.00;95594.94;4973650;28;20050;-70
2024/01/15 09:24:30;;;;;;;27.67;10.70;;;;;;;-0.35;100.00;95590.00;4981096;28;20101;-69
2024/01/15 09:26:56;;;;;;;25.70;10.43;;;;;;;-0.30;100.00;95589.06;4981490;28;20038;-69
2024/01/15 09:29:23;;;;;;;26.45;10.15;;;;;;;-0.29;100.00;95587.94;4975676;28;20802;-70
2024/01/15 09:31:50;;;;;;;23.15;10.38;;;;;;;-0.26;100.00;95595.34;4979795;28;20386;-70
2024/01/15 09:34:15;;;;;;;24.60;10.80;;;;;;;-0.30;100.00;95602.50;4978511;28;20050;-70
2024/01/15 09:36:44;;;;;;;24.38;10.10;;;;;;;-0.34;100.00;95605.06;4986600;28;20045;-69
2024/01/15 09:39:10;;;;;;;31.42;10.88;;;;;;;-0.15;100.00;95609.25;4980185;28;20049;-70
2024/01/15 09:41:37;;;;;;;25.73;10.20;;;;;;;-0.20;100.00;95608.31;4984699;28;20385;-70
2024/01/15 09:44:04;;;;;;;22.90;10.05;;;;;;;-0.18;100.00;95609.88;4977861;28;20045;-70
2024/01/15 09:46:34;;;;;;;29.05;10.98;;;;;;;-0.23;100.00;95597.41;4981641;28;20062;-69
2024/01/15 09:49:00;;;;;;;23.25;9.57;;;;;;;-0.22;100.00;95602.47;4974401;28;20059;-68
2024/01/15 09:51:25;;;;;;;27.70;10.88;;;;;;;-0.08;100.00;95599.53;4974617;28;20186;-69
2024/01/15 09:53:51;;;;;;;27.15;10.75;;;;;;;-0.21;100.00;95601.34;4979093;28;20057;-69
2024/01/15 09:56:17;;;;;;;31.48;11.88;;;;;;;-0.11;100.00;95596.69;4975243;28;20125;-69
2024/01/15 09:58:42;;;;;;;30.05;11.25;;;;;;;-0.01;100.00;95590.97;4979653;28;20196;-69
2024/01/15 10:01:09;;;;;;;25.67;10.60;;;;;;;-0.01;100.00;95585.56;4976136;28;20150;-69
2024/01/15 10:03:35;;;;;;;21.08;9.27;;;;;;;0.02;100.00;95589.50;4981454;28;20141;-69
2024/01/15 10:06:02;;;;;;;25.98;9.98;;;;;;;-0.11;100.00;95591.31;4980630;28;20129;-69
2024/01/15 10:08:28;;;;;;;23.98;10.75;;;;;;;-0.10;100.00;95592.91;4974933;28;20133;-69
2024/01/15 10:10:53;;;;;;;24.88;9.98;;;;;;;-0.04;100.00;95596.97;4978857;28;20482;-69
2024/01/15 10:13:19;;;;;;;22.45;10.02;;;;;;;0.00;100.00;95597.94;4975191;28;20132;-69
2024/01/15 10:15:47;;;;;;;23.83;10.05;;;;;;;-0.06;100.00;95596.53;4981452;28;20525;-69
2024/01/15 10:18:13;;;;;;;26.63;9.38;;;;;;;-0.16;100.00;95594.19;4980682;28;20038;-69
2024/01/15 10:20:39;;;;;;;20.77;9.70;;;;;;;-0.18;100.00;95588.34;4981372;28;20040;-69
2024/01/15 10:23:05;;;;;;;23.60;9.25;;;;;;;0.07;100.00;95571.25;4975132;28;20046;-69
2024/01/15 10:25:30;;;;;;;21.73;9.32;;;;;;;0.16;100.00;95571.22;4979574;28;20166;-69
2024/01/15 10:28:03;;;;;;;22.15;9.50;;;;;;;-0.11;100.00;95565.22;4979593;28;20128;-69
2024/01/15 10:30:29;;;;;;;27.35;9.55;;;;;;;0.00;100.00;95560.25;4977003;28;20043;-69
2024/01/15 10:33:02;;;;;;;23.88;10.18;;;;;;;0.11;100.00;95561.44;4979828;28;20043;-69
2024/01/15 10:35:32;;;;;;;19.30;8.65;;;;;;;-0.03;100.00;95558.97;4978047;28;20498;-69
2024/01/15 10:37:58;;;;;;;;;;;;;;;0.15;100.00;95540.81;4980230;28;20054;-69
2024/01/15 10:40:23;;;;;;;19.58;8.02;;;;;;;0.11;100.00;95533.69;4976337;28;20818;-69
2024/01/15 10:42:49;;;;;;;22.45;8.10;;;;;;;0.21;100.00;95532.53;4978154;28;20046;-69
2024/01/15 10:45:14;;;;;;;21.20;8.27;;;;;;;0.24;100.00;95524.59;4975715;28;20097;-69
2024/01/15 10:47:43;;;;;;;21.88;9.40;;;;;;;0.37;100.00;95514.66;4980029;28;20046;-69
2024/01/15 10:50:09;;;;;;;21.15;8.13;;;;;;;0.46;100.00;95520.75;4989698;28;20035;-70
2024/01/15 10:52:45;;;;;;;26.23;9.25;;;;;;;0.17;100.00;95521.63;4978296;28;20046;-70
2024/01/15 10:55:11;;;;;;;20.55;9.13;;;;;;;0.24;100.00;95526.50;4972579;28;20413;-67
2024/01/15 10:57:39;;;;;;;23.20;8.80;;;;;;;0.15;100.00;95529.25;4978556;28;20046;-71
2024/01/15 11:00:06;;;;;;;16.75;8.30;;;;;;;0.16;100.00;95522.75;4975115;28;20043;-71
2024/01/15 11:02:34;;;;;;;28.13;8.38;;;;;;;0.16;100.00;95528.13;4987843;28;20039;-73
2024/01/15 11:04:59;;;;;;;21.63;8.18;;;;;;;0.33;100.00;95516.44;4981260;28;20043;-71
2024/01/15 11:07:26;;;;;;;21.40;8.55;;;;;;;0.30;100.00;95519.78;4974626;28;20105;-71
2024/01/15 11:09:52;;;;;;;24.50;8.82;;;;;;;0.33;100.00;95522.63;4978794;28;20047;-71
2024/01/15 11:12:19;;;;;;;19.80;8.13;;;;;;;0.34;100.00;95509.94;4973339;28;20049;-69